createdAt,value
2022-10-11T06:41:11.386Z,11.23
2022-10-11T06:43:38.344Z,13.23
2022-10-11T06:46:05.761Z,11.40
2022-10-11T06:48:32.931Z,12.50
2022-10-11T06:51:00.737Z,11.30
2022-10-11T06:53:30.295Z,11.23
2022-10-11T06:56:06.151Z,12.38
2022-10-11T06:58:36.232Z,11.77
2022-10-11T07:01:05.901Z,12.15
2022-10-11T07:03:35.403Z,15.25
2022-10-11T07:06:08.301Z,14.02
2022-10-11T07:08:38.488Z,15.38
2022-10-11T07:11:20.266Z,14.48
2022-10-11T07:13:55.001Z,14.80
2022-10-11T07:16:29.197Z,14.40
2022-10-11T07:19:01.404Z,15.07
2022-10-11T07:21:32.388Z,14.48
2022-10-11T07:23:59.604Z,13.68
2022-10-11T07:28:56.427Z,13.80
2022-10-11T07:31:26.925Z,13.80
2022-10-11T07:33:54.055Z,13.77
2022-10-11T07:36:23.426Z,13.82
2022-10-11T07:38:51.258Z,13.88
2022-10-11T07:41:20.601Z,13.85
2022-10-11T07:43:49.663Z,14.70
2022-10-11T07:46:18.273Z,14.55
2022-10-11T07:48:45.516Z,14.07
2022-10-11T07:51:18.969Z,13.68
2022-10-11T07:53:48.809Z,13.27
2022-10-11T07:56:20.897Z,13.95
2022-10-11T07:58:57.382Z,14.70
2022-10-11T08:01:27.314Z,14.00
2022-10-11T08:03:59.962Z,13.60
2022-10-11T08:06:32.452Z,13.57
2022-10-11T08:09:01.014Z,13.10
2022-10-11T08:11:34.341Z,12.93
2022-10-11T08:14:08.951Z,14.02
2022-10-11T08:16:39.222Z,13.63
2022-10-11T08:19:08.968Z,12.98
2022-10-11T08:21:38.521Z,13.13
2022-10-11T08:24:06.758Z,13.27
2022-10-11T08:26:34.571Z,12.77
2022-10-11T08:29:05.298Z,13.65
2022-10-11T08:31:37.993Z,14.05
2022-10-11T08:34:05.278Z,14.25
2022-10-11T08:36:37.518Z,14.90
2022-10-11T08:39:05.825Z,13.55
2022-10-11T08:42:11.123Z,13.60
2022-10-11T08:45:08.990Z,13.70
2022-10-11T08:47:32.892Z,13.77
2022-10-11T08:50:01.003Z,12.90
2022-10-11T08:52:50.885Z,13.63
2022-10-11T08:55:28.422Z,12.77
2022-10-11T08:58:00.992Z,12.00
2022-10-11T09:00:32.712Z,11.30
2022-10-11T09:03:21.416Z,11.88
2022-10-11T09:06:11.747Z,12.18
2022-10-11T09:08:47.800Z,12.65
2022-10-11T09:11:20.676Z,11.32
2022-10-11T09:13:57.155Z,12.40
2022-10-11T09:16:42.713Z,10.73
2022-10-11T09:19:47.654Z,12.98
2022-10-11T09:22:14.511Z,9.90
2022-10-11T09:24:53.283Z,9.50
2022-10-11T09:27:29.137Z,11.68
2022-10-11T09:30:19.475Z,12.43
2022-10-11T09:32:53.560Z,11.07
2022-10-11T09:35:23.101Z,11.27
2022-10-11T09:38:16.609Z,10.93
2022-10-11T09:41:01.030Z,9.75
2022-10-11T09:43:33.187Z,10.75
2022-10-11T09:46:10.425Z,9.18
2022-10-11T09:48:42.113Z,10.25
2022-10-11T09:51:17.350Z,9.27
2022-10-11T09:53:56.401Z,9.35
2022-10-11T09:56:25.760Z,9.43
2022-10-11T09:59:16.803Z,9.50
2022-10-11T10:01:49.488Z,9.48
2022-10-11T10:04:17.186Z,8.68
2022-10-11T10:06:46.642Z,9.55
2022-10-11T10:09:21.434Z,8.48
2022-10-11T10:11:50.640Z,9.15
2022-10-11T10:14:27.760Z,8.50
2022-10-11T10:19:31.092Z,8.48
2022-10-11T10:21:58.260Z,9.35
2022-10-11T10:24:28.147Z,8.60
2022-10-11T10:27:14.304Z,8.07
2022-10-11T10:29:41.973Z,7.90
2022-10-11T10:32:15.290Z,7.65
2022-10-11T10:35:22.437Z,7.85
2022-10-11T10:37:56.640Z,9.25
2022-10-11T10:40:32.496Z,9.82
2022-10-11T10:43:01.774Z,9.55
2022-10-11T10:45:41.109Z,10.02
2022-10-11T10:48:26.708Z,10.70
2022-10-11T10:51:00.180Z,10.10
2022-10-11T10:53:36.562Z,8.93
2022-10-11T10:56:15.523Z,9.30
2022-10-11T10:58:56.940Z,9.73
2022-10-11T11:01:41.197Z,9.82
2022-10-11T11:04:32.729Z,10.13
2022-10-11T11:07:18.617Z,9.65
2022-10-11T11:10:13.257Z,10.40
2022-10-11T11:12:40.154Z,8.95
2022-10-11T11:15:16.042Z,9.25
2022-10-11T11:18:37.187Z,9.40
2022-10-11T11:21:41.524Z,9.02
2022-10-11T11:24:39.346Z,8.25
2022-10-11T11:27:30.414Z,8.00
2022-10-11T11:30:21.173Z,8.98
2022-10-11T11:33:25.801Z,8.98
2022-10-11T11:35:55.831Z,9.63
2022-10-11T11:38:53.969Z,10.00
2022-10-11T11:41:33.515Z,9.50
2022-10-11T11:44:12.241Z,11.27
2022-10-11T11:46:44.224Z,10.85
2022-10-11T11:49:24.609Z,11.25
2022-10-11T11:51:52.695Z,10.10
2022-10-11T11:54:31.761Z,9.63
2022-10-11T11:57:17.286Z,9.75
2022-10-11T11:59:44.175Z,9.18
2022-10-11T12:02:23.348Z,9.70
2022-10-11T12:04:52.287Z,11.10
2022-10-11T12:07:23.563Z,10.15
2022-10-11T12:09:54.591Z,10.68
2022-10-11T12:12:37.110Z,10.32
2022-10-11T12:15:10.220Z,10.10
2022-10-11T12:17:58.064Z,9.73
2022-10-11T12:20:28.692Z,10.57
2022-10-11T12:23:33.031Z,10.38
2022-10-11T12:26:27.546Z,9.27
2022-10-11T12:29:03.857Z,10.15
2022-10-11T12:31:35.991Z,10.35
2022-10-11T12:34:36.509Z,8.98
2022-10-11T12:37:32.025Z,9.00
2022-10-11T12:40:00.334Z,8.93
2022-10-11T12:42:34.133Z,10.23
2022-10-11T12:45:13.349Z,9.48
2022-10-11T12:47:47.177Z,9.73
2022-10-11T12:50:22.671Z,9.60
2022-10-11T12:53:15.294Z,9.68
2022-10-11T12:56:04.513Z,9.38
2022-10-11T12:58:41.349Z,9.30
2022-10-11T13:01:12.953Z,9.75
2022-10-11T13:04:12.593Z,8.93
2022-10-11T13:06:50.119Z,9.18
2022-10-11T13:09:48.803Z,9.65
2022-10-11T13:12:24.269Z,8.63
2022-10-11T13:14:56.550Z,8.13
2022-10-11T13:17:38.490Z,9.05
2022-10-11T13:20:24.135Z,8.70
2022-10-11T13:22:54.118Z,8.80
2022-10-11T13:25:22.856Z,9.75
2022-10-11T13:27:52.820Z,7.55
2022-10-11T13:30:25.481Z,8.15
2022-10-11T13:32:55.532Z,8.65
2022-10-11T13:35:40.307Z,8.95
2022-10-11T13:38:27.794Z,9.05
2022-10-11T13:41:02.028Z,10.32
2022-10-11T13:43:30.809Z,11.18
2022-10-11T13:46:02.862Z,10.07
2022-10-11T13:48:32.139Z,9.13
2022-10-11T13:51:30.478Z,8.93
2022-10-11T13:54:13.718Z,9.95
2022-10-11T13:56:51.342Z,10.30
2022-10-11T13:59:24.630Z,10.68
2022-10-11T14:01:58.457Z,9.88
2022-10-11T14:04:38.674Z,9.93
2022-10-11T14:07:25.588Z,9.65
2022-10-11T14:12:26.364Z,9.13
2022-10-11T14:14:53.653Z,8.70
2022-10-11T14:20:12.809Z,8.73
2022-10-11T14:22:42.075Z,8.80
2022-10-11T14:25:12.283Z,9.32
2022-10-11T14:27:42.651Z,10.50
2022-10-11T14:30:27.471Z,9.50
2022-10-11T14:32:57.823Z,9.57
2022-10-11T14:35:32.351Z,8.73
2022-10-11T14:38:02.117Z,9.23
2022-10-11T14:40:31.700Z,9.02
2022-10-11T14:43:00.708Z,8.70
2022-10-11T14:45:29.793Z,8.63
2022-10-11T14:47:56.758Z,8.30
2022-10-11T14:50:40.529Z,8.35
2022-10-11T14:53:11.855Z,8.13
2022-10-11T14:55:40.791Z,8.77
2022-10-11T14:58:09.408Z,8.52
2022-10-11T15:00:38.881Z,8.68
2022-10-11T15:03:08.504Z,8.57
2022-10-11T15:05:38.116Z,8.05
2022-10-11T15:08:06.466Z,7.50
2022-10-11T15:10:38.954Z,7.75
2022-10-11T15:13:07.674Z,7.78
2022-10-11T15:15:36.943Z,7.60
2022-10-11T15:18:06.477Z,7.93
2022-10-11T15:20:39.675Z,8.00
2022-10-11T15:23:09.705Z,7.50
2022-10-11T15:25:41.259Z,7.80
2022-10-11T15:28:14.870Z,7.50
2022-10-11T15:30:42.042Z,8.38
2022-10-11T15:33:09.264Z,7.70
2022-10-11T15:35:36.565Z,7.32
2022-10-11T15:38:04.008Z,8.23
2022-10-11T15:40:43.453Z,7.70
2022-10-11T15:43:10.527Z,7.57
2022-10-11T15:45:37.749Z,7.70
2022-10-11T15:53:07.958Z,7.45
2022-10-11T15:55:40.474Z,6.68
2022-10-11T15:58:15.508Z,10.90
2022-10-11T16:00:44.715Z,6.93
2022-10-11T16:03:13.645Z,7.45
2022-10-11T16:05:41.819Z,7.38
2022-10-11T16:08:10.059Z,6.70
2022-10-11T16:10:40.376Z,8.35
2022-10-11T16:13:08.114Z,8.23
2022-10-11T16:15:39.997Z,6.72
2022-10-11T16:18:09.311Z,7.35
2022-10-11T16:20:43.457Z,7.05
2022-10-11T16:23:11.084Z,7.10
2022-10-11T16:25:41.079Z,7.70
2022-10-11T16:28:09.109Z,7.30
2022-10-11T16:30:43.214Z,7.13
2022-10-11T16:33:10.405Z,7.90
2022-10-11T16:35:41.858Z,7.35
2022-10-11T16:38:09.278Z,6.78
2022-10-11T16:40:42.498Z,7.35
2022-10-11T16:43:10.091Z,7.68
2022-10-11T16:45:37.565Z,8.18
2022-10-11T16:48:05.147Z,8.80
2022-10-11T16:50:39.319Z,8.57
2022-10-11T16:53:09.003Z,8.27
2022-10-11T16:55:42.784Z,8.25
2022-10-11T16:58:12.321Z,7.47
2022-10-11T17:00:42.692Z,9.43
2022-10-11T17:03:09.983Z,8.55
2022-10-11T17:05:41.944Z,8.40
2022-10-11T17:08:11.133Z,7.85
2022-10-11T17:10:44.279Z,8.57
2022-10-11T17:13:11.591Z,7.82
2022-10-11T17:15:43.432Z,8.27
2022-10-11T17:18:12.678Z,8.80
2022-10-11T17:20:39.910Z,8.07
2022-10-11T17:23:10.043Z,8.57
2022-10-11T17:25:47.281Z,8.93
2022-10-11T17:28:16.592Z,8.88
2022-10-11T17:30:52.106Z,8.98
2022-10-11T17:33:19.163Z,8.88
2022-10-11T17:35:46.103Z,8.63
2022-10-11T17:38:13.159Z,9.45
2022-10-11T17:40:40.070Z,10.10
2022-10-11T17:43:09.326Z,10.52
2022-10-11T17:45:36.287Z,9.57
2022-10-11T17:48:05.889Z,10.10
2022-10-11T17:50:33.102Z,10.32
2022-10-11T17:53:00.042Z,10.10
2022-10-11T17:55:27.066Z,10.32
2022-10-11T17:57:54.084Z,10.38
2022-10-11T18:00:21.170Z,10.20
2022-10-11T18:02:50.496Z,9.98
2022-10-11T18:05:22.239Z,9.88
2022-10-11T18:07:55.195Z,10.10
2022-10-11T18:10:25.026Z,9.95
2022-10-11T18:12:55.043Z,10.20
2022-10-11T18:15:22.032Z,11.15
2022-10-11T18:17:51.355Z,10.40
2022-10-11T18:20:18.385Z,10.70
2022-10-11T18:22:45.383Z,11.32
2022-10-11T18:25:15.016Z,10.82
2022-10-11T18:27:44.079Z,10.95
2022-10-11T18:30:18.348Z,11.10
2022-10-11T18:32:50.663Z,11.10
2022-10-11T18:35:22.301Z,10.55
2022-10-11T18:38:00.899Z,11.73
2022-10-11T18:40:31.011Z,10.20
2022-10-11T18:43:00.592Z,10.18
2022-10-11T18:45:32.131Z,11.05
2022-10-11T18:47:59.035Z,10.27
2022-10-11T18:50:28.612Z,10.27
2022-10-11T18:52:57.924Z,9.88
2022-10-11T18:55:24.947Z,9.75
2022-10-11T18:57:51.987Z,10.20
2022-10-11T19:00:39.798Z,10.38
2022-10-11T19:03:07.099Z,9.75
2022-10-11T19:05:34.136Z,10.90
2022-10-11T19:08:01.208Z,11.73
2022-10-11T19:10:33.012Z,11.48
2022-10-11T19:13:02.535Z,10.65
2022-10-11T19:15:29.525Z,12.23
2022-10-11T19:17:58.957Z,12.85
2022-10-11T19:20:25.940Z,12.20
2022-10-11T19:22:52.995Z,11.63
2022-10-11T19:25:24.519Z,11.80
2022-10-11T19:27:51.601Z,10.57
2022-10-11T19:30:21.984Z,11.93
2022-10-11T19:32:51.569Z,12.32
2022-10-11T19:35:20.049Z,12.93
2022-10-11T19:37:47.224Z,12.13
2022-10-11T19:40:16.907Z,11.45
2022-10-11T19:42:44.026Z,11.68
2022-10-11T19:45:11.181Z,11.70
2022-10-11T19:47:38.182Z,11.15
2022-10-11T19:50:05.568Z,10.80
2022-10-11T19:52:32.804Z,11.00
2022-10-11T19:55:00.036Z,11.10
2022-10-11T19:57:31.972Z,10.45
2022-10-11T20:00:01.330Z,10.93
2022-10-11T20:02:28.384Z,11.02
2022-10-11T20:04:55.652Z,10.25
2022-10-11T20:09:55.059Z,10.68
2022-10-11T20:12:22.242Z,10.00
2022-10-11T20:14:52.197Z,10.50
2022-10-11T20:17:19.233Z,9.90
2022-10-11T20:19:46.355Z,9.68
2022-10-11T20:22:15.892Z,10.30
2022-10-11T20:24:45.314Z,9.70
2022-10-11T20:27:12.550Z,10.50
2022-10-11T20:29:41.726Z,11.50
2022-10-11T20:32:11.241Z,10.85
2022-10-11T20:34:40.537Z,12.05
2022-10-11T20:37:07.503Z,11.13
2022-10-11T20:39:34.547Z,11.23
2022-10-11T20:42:01.608Z,11.15
2022-10-11T20:44:30.787Z,12.30
2022-10-11T20:47:03.860Z,10.52
2022-10-11T20:49:33.538Z,10.98
2022-10-11T20:52:00.545Z,15.52
2022-10-11T20:54:30.825Z,11.90
2022-10-11T20:56:59.231Z,10.18
2022-10-11T20:59:26.863Z,10.02
2022-10-11T21:01:54.269Z,10.20
2022-10-11T21:04:23.779Z,10.18
2022-10-11T21:06:53.356Z,10.93
2022-10-11T21:09:20.560Z,11.27
2022-10-11T21:11:49.532Z,10.80
2022-10-11T21:14:17.252Z,10.55
2022-10-11T21:16:44.500Z,11.20
2022-10-11T21:21:42.826Z,10.98
2022-10-11T21:24:10.131Z,11.48
2022-10-11T21:29:06.280Z,11.63
2022-10-11T21:31:35.691Z,11.65
2022-10-11T21:34:05.011Z,12.05
2022-10-11T21:36:34.642Z,13.65
2022-10-11T21:39:01.643Z,11.27
2022-10-11T21:41:31.345Z,12.15
2022-10-11T21:44:01.707Z,10.60
2022-10-11T21:49:19.298Z,11.18
2022-10-11T21:54:13.082Z,10.90
2022-10-11T21:56:39.985Z,11.02
